sensor_id;sensor_type;location;lat;lon;timestamp;P1;durP1;ratioP1;P2;durP2;ratioP2
72864;SDS011;61000;48.120;11.548;2024-01-27T00:01:52;6.38;;;4.88;;
72864;SDS011;61000;48.120;11.548;2024-01-27T00:04:19;3.85;;;3.50;;
72864;SDS011;61000;48.120;11.548;2024-01-27T00:06:46;5.40;;;3.83;;
72864;SDS011;61000;48.120;11.548;2024-01-27T00:09:13;5.65;;;3.10;;
72864;SDS011;61000;48.120;11.548;2024-01-27T00:11:42;7.78;;;3.42;;
72864;SDS011;61000;48.120;11.548;2024-01-27T00:14:09;5.40;;;2.60;;
72864;SDS011;61000;48.120;11.548;2024-01-27T00:16:36;7.22;;;3.13;;
72864;SDS011;61000;48.120;11.548;2024-01-27T00:19:04;3.67;;;3.00;;
72864;SDS011;61000;48.120;11.548;2024-01-27T00:21:31;3.88;;;2.90;;
72864;SDS011;61000;48.120;11.548;2024-01-27T00:23:58;8.60;;;5.10;;
72864;SDS011;61000;48.120;11.548;2024-01-27T00:26:28;4.88;;;2.70;;
72864;SDS011;61000;48.120;11.548;2024-01-27T00:28:56;6.15;;;3.25;;
72864;SDS011;61000;48.120;11.548;2024-01-27T00:31:24;5.68;;;3.42;;
72864;SDS011;61000;48.120;11.548;2024-01-27T00:33:52;6.15;;;4.03;;
72864;SDS011;61000;48.120;11.548;2024-01-27T00:36:19;7.30;;;4.35;;
72864;SDS011;61000;48.120;11.548;2024-01-27T00:38:47;9.23;;;5.60;;
72864;SDS011;61000;48.120;11.548;2024-01-27T00:41:17;11.25;;;6.10;;
72864;SDS011;61000;48.120;11.548;2024-01-27T00:43:45;8.70;;;5.10;;
72864;SDS011;61000;48.120;11.548;2024-01-27T00:46:16;10.80;;;6.43;;
72864;SDS011;61000;48.120;11.548;2024-01-27T00:48:43;7.72;;;3.88;;
72864;SDS011;61000;48.120;11.548;2024-01-27T00:51:10;4.90;;;3.22;;
72864;SDS011;61000;48.120;11.548;2024-01-27T00:53:36;4.63;;;2.92;;
72864;SDS011;61000;48.120;11.548;2024-01-27T00:56:04;5.38;;;3.30;;
72864;SDS011;61000;48.120;11.548;2024-01-27T00:58:31;6.53;;;3.03;;
72864;SDS011;61000;48.120;11.548;2024-01-27T01:00:59;9.07;;;3.88;;
72864;SDS011;61000;48.120;11.548;2024-01-27T01:03:27;5.65;;;3.35;;
72864;SDS011;61000;48.120;11.548;2024-01-27T01:05:54;7.15;;;3.50;;
72864;SDS011;61000;48.120;11.548;2024-01-27T01:08:21;7.43;;;4.78;;
72864;SDS011;61000;48.120;11.548;2024-01-27T01:10:51;6.53;;;4.03;;
72864;SDS011;61000;48.120;11.548;2024-01-27T01:13:18;8.98;;;5.15;;
72864;SDS011;61000;48.120;11.548;2024-01-27T01:15:48;5.68;;;3.55;;
72864;SDS011;61000;48.120;11.548;2024-01-27T01:18:15;5.43;;;3.47;;
72864;SDS011;61000;48.120;11.548;2024-01-27T01:20:43;2.70;;;2.47;;
72864;SDS011;61000;48.120;11.548;2024-01-27T01:23:10;7.32;;;3.78;;
72864;SDS011;61000;48.120;11.548;2024-01-27T01:25:37;5.63;;;2.95;;
72864;SDS011;61000;48.120;11.548;2024-01-27T01:28:04;4.75;;;2.63;;
72864;SDS011;61000;48.120;11.548;2024-01-27T01:30:31;3.10;;;2.78;;
72864;SDS011;61000;48.120;11.548;2024-01-27T01:32:58;4.78;;;3.05;;
72864;SDS011;61000;48.120;11.548;2024-01-27T01:35:25;3.97;;;2.90;;
72864;SDS011;61000;48.120;11.548;2024-01-27T01:37:53;4.10;;;2.88;;
72864;SDS011;61000;48.120;11.548;2024-01-27T01:40:20;6.95;;;2.80;;
72864;SDS011;61000;48.120;11.548;2024-01-27T01:42:50;5.72;;;2.28;;
72864;SDS011;61000;48.120;11.548;2024-01-27T01:45:17;4.40;;;2.90;;
72864;SDS011;61000;48.120;11.548;2024-01-27T01:47:45;5.32;;;3.10;;
72864;SDS011;61000;48.120;11.548;2024-01-27T01:50:12;3.80;;;2.50;;
72864;SDS011;61000;48.120;11.548;2024-01-27T01:52:39;2.45;;;2.25;;
72864;SDS011;61000;48.120;11.548;2024-01-27T01:55:08;5.53;;;3.25;;
72864;SDS011;61000;48.120;11.548;2024-01-27T01:57:38;6.57;;;2.88;;
72864;SDS011;61000;48.120;11.548;2024-01-27T02:00:05;7.32;;;2.72;;
72864;SDS011;61000;48.120;11.548;2024-01-27T02:02:37;3.85;;;2.30;;
72864;SDS011;61000;48.120;11.548;2024-01-27T02:05:04;4.68;;;3.00;;
72864;SDS011;61000;48.120;11.548;2024-01-27T02:07:34;9.50;;;3.00;;
72864;SDS011;61000;48.120;11.548;2024-01-27T02:10:00;7.93;;;2.88;;
72864;SDS011;61000;48.120;11.548;2024-01-27T02:12:29;4.55;;;2.70;;
72864;SDS011;61000;48.120;11.548;2024-01-27T02:14:56;6.22;;;3.10;;
72864;SDS011;61000;48.120;11.548;2024-01-27T02:17:23;5.32;;;3.60;;
72864;SDS011;61000;48.120;11.548;2024-01-27T02:19:50;2.92;;;2.38;;
72864;SDS011;61000;48.120;11.548;2024-01-27T02:22:17;4.55;;;2.70;;
72864;SDS011;61000;48.120;11.548;2024-01-27T02:24:45;5.20;;;2.30;;
72864;SDS011;61000;48.120;11.548;2024-01-27T02:27:12;4.30;;;2.42;;
72864;SDS011;61000;48.120;11.548;2024-01-27T02:29:39;5.68;;;2.72;;
72864;SDS011;61000;48.120;11.548;2024-01-27T02:32:06;4.00;;;2.50;;
72864;SDS011;61000;48.120;11.548;2024-01-27T02:34:33;3.47;;;2.60;;
72864;SDS011;61000;48.120;11.548;2024-01-27T02:37:00;7.63;;;2.97;;
72864;SDS011;61000;48.120;11.548;2024-01-27T02:39:26;3.47;;;2.50;;
72864;SDS011;61000;48.120;11.548;2024-01-27T02:41:55;3.40;;;2.35;;
72864;SDS011;61000;48.120;11.548;2024-01-27T02:44:21;5.35;;;2.72;;
72864;SDS011;61000;48.120;11.548;2024-01-27T02:46:48;3.08;;;2.50;;
72864;SDS011;61000;48.120;11.548;2024-01-27T02:49:15;5.07;;;2.78;;
72864;SDS011;61000;48.120;11.548;2024-01-27T02:51:42;3.67;;;2.80;;
72864;SDS011;61000;48.120;11.548;2024-01-27T02:54:09;8.52;;;2.60;;
72864;SDS011;61000;48.120;11.548;2024-01-27T02:56:36;5.43;;;2.83;;
72864;SDS011;61000;48.120;11.548;2024-01-27T02:59:05;7.43;;;2.70;;
72864;SDS011;61000;48.120;11.548;2024-01-27T03:01:32;4.25;;;2.60;;
72864;SDS011;61000;48.120;11.548;2024-01-27T03:03:59;3.55;;;2.53;;
72864;SDS011;61000;48.120;11.548;2024-01-27T03:06:26;4.95;;;2.72;;
72864;SDS011;61000;48.120;11.548;2024-01-27T03:08:52;5.65;;;2.75;;
72864;SDS011;61000;48.120;11.548;2024-01-27T03:11:19;3.08;;;2.67;;
72864;SDS011;61000;48.120;11.548;2024-01-27T03:13:46;4.72;;;2.72;;
72864;SDS011;61000;48.120;11.548;2024-01-27T03:16:14;5.82;;;2.55;;
72864;SDS011;61000;48.120;11.548;2024-01-27T03:18:43;4.10;;;2.72;;
72864;SDS011;61000;48.120;11.548;2024-01-27T03:21:10;3.15;;;2.60;;
72864;SDS011;61000;48.120;11.548;2024-01-27T03:23:37;7.38;;;2.95;;
72864;SDS011;61000;48.120;11.548;2024-01-27T03:26:04;5.20;;;2.70;;
72864;SDS011;61000;48.120;11.548;2024-01-27T03:28:31;2.88;;;2.60;;
72864;SDS011;61000;48.120;11.548;2024-01-27T03:30:57;4.25;;;2.83;;
72864;SDS011;61000;48.120;11.548;2024-01-27T03:33:26;7.38;;;2.80;;
72864;SDS011;61000;48.120;11.548;2024-01-27T03:35:54;4.20;;;2.75;;
72864;SDS011;61000;48.120;11.548;2024-01-27T03:38:21;7.47;;;3.00;;
72864;SDS011;61000;48.120;11.548;2024-01-27T03:40:48;6.35;;;2.47;;
72864;SDS011;61000;48.120;11.548;2024-01-27T03:43:15;6.38;;;2.42;;
72864;SDS011;61000;48.120;11.548;2024-01-27T03:45:42;6.68;;;2.65;;
72864;SDS011;61000;48.120;11.548;2024-01-27T03:48:09;4.25;;;2.20;;
72864;SDS011;61000;48.120;11.548;2024-01-27T03:50:37;6.28;;;2.70;;
72864;SDS011;61000;48.120;11.548;2024-01-27T03:53:04;3.55;;;2.30;;
72864;SDS011;61000;48.120;11.548;2024-01-27T03:55:31;2.80;;;2.47;;
72864;SDS011;61000;48.120;11.548;2024-01-27T03:57:59;3.90;;;2.60;;
72864;SDS011;61000;48.120;11.548;2024-01-27T04:00:26;2.70;;;2.50;;
72864;SDS011;61000;48.120;11.548;2024-01-27T04:02:54;7.18;;;3.17;;
72864;SDS011;61000;48.120;11.548;2024-01-27T04:05:21;6.60;;;3.38;;
72864;SDS011;61000;48.120;11.548;2024-01-27T04:07:49;6.53;;;3.10;;
72864;SDS011;61000;48.120;11.548;2024-01-27T04:10:17;5.10;;;2.92;;
72864;SDS011;61000;48.120;11.548;2024-01-27T04:12:44;6.47;;;2.92;;
72864;SDS011;61000;48.120;11.548;2024-01-27T04:15:11;5.03;;;2.60;;
72864;SDS011;61000;48.120;11.548;2024-01-27T04:17:37;4.20;;;2.67;;
72864;SDS011;61000;48.120;11.548;2024-01-27T04:20:05;7.30;;;2.65;;
72864;SDS011;61000;48.120;11.548;2024-01-27T04:22:33;4.75;;;2.58;;
72864;SDS011;61000;48.120;11.548;2024-01-27T04:25:01;5.93;;;3.22;;
72864;SDS011;61000;48.120;11.548;2024-01-27T04:27:29;4.07;;;2.92;;
72864;SDS011;61000;48.120;11.548;2024-01-27T04:29:56;5.65;;;2.85;;
72864;SDS011;61000;48.120;11.548;2024-01-27T04:32:23;3.30;;;2.72;;
72864;SDS011;61000;48.120;11.548;2024-01-27T04:34:51;3.95;;;2.63;;
72864;SDS011;61000;48.120;11.548;2024-01-27T04:37:18;7.60;;;3.13;;
72864;SDS011;61000;48.120;11.548;2024-01-27T04:39:45;7.00;;;5.15;;
72864;SDS011;61000;48.120;11.548;2024-01-27T04:42:14;4.53;;;2.53;;
72864;SDS011;61000;48.120;11.548;2024-01-27T04:44:41;6.45;;;2.95;;
72864;SDS011;61000;48.120;11.548;2024-01-27T04:47:08;4.13;;;2.80;;
72864;SDS011;61000;48.120;11.548;2024-01-27T04:49:36;4.47;;;2.78;;
72864;SDS011;61000;48.120;11.548;2024-01-27T04:52:03;7.38;;;3.15;;
72864;SDS011;61000;48.120;11.548;2024-01-27T04:54:31;3.63;;;2.92;;
72864;SDS011;61000;48.120;11.548;2024-01-27T04:56:58;2.80;;;2.60;;
72864;SDS011;61000;48.120;11.548;2024-01-27T04:59:26;4.18;;;2.95;;
72864;SDS011;61000;48.120;11.548;2024-01-27T05:01:53;3.08;;;2.75;;
72864;SDS011;61000;48.120;11.548;2024-01-27T05:04:21;6.00;;;2.60;;
72864;SDS011;61000;48.120;11.548;2024-01-27T05:06:51;3.95;;;2.45;;
72864;SDS011;61000;48.120;11.548;2024-01-27T05:09:18;7.30;;;3.20;;
72864;SDS011;61000;48.120;11.548;2024-01-27T05:11:46;9.10;;;3.42;;
72864;SDS011;61000;48.120;11.548;2024-01-27T05:14:16;7.75;;;4.00;;
72864;SDS011;61000;48.120;11.548;2024-01-27T05:16:45;4.03;;;3.55;;
72864;SDS011;61000;48.120;11.548;2024-01-27T05:19:12;7.85;;;4.20;;
72864;SDS011;61000;48.120;11.548;2024-01-27T05:21:42;6.75;;;3.78;;
72864;SDS011;61000;48.120;11.548;2024-01-27T05:24:09;9.48;;;3.17;;
72864;SDS011;61000;48.120;11.548;2024-01-27T05:26:36;5.32;;;3.10;;
72864;SDS011;61000;48.120;11.548;2024-01-27T05:29:03;7.70;;;4.13;;
72864;SDS011;61000;48.120;11.548;2024-01-27T05:31:30;4.53;;;3.40;;
72864;SDS011;61000;48.120;11.548;2024-01-27T05:33:59;3.80;;;3.38;;
72864;SDS011;61000;48.120;11.548;2024-01-27T05:36:26;7.60;;;3.63;;
72864;SDS011;61000;48.120;11.548;2024-01-27T05:38:52;3.63;;;2.65;;
72864;SDS011;61000;48.120;11.548;2024-01-27T05:41:25;5.80;;;2.90;;
72864;SDS011;61000;48.120;11.548;2024-01-27T05:43:52;6.78;;;3.47;;
72864;SDS011;61000;48.120;11.548;2024-01-27T05:46:19;3.13;;;2.85;;
72864;SDS011;61000;48.120;11.548;2024-01-27T05:48:46;6.80;;;3.25;;
72864;SDS011;61000;48.120;11.548;2024-01-27T05:51:17;4.70;;;3.30;;
72864;SDS011;61000;48.120;11.548;2024-01-27T05:53:44;3.92;;;3.20;;
72864;SDS011;61000;48.120;11.548;2024-01-27T05:56:11;6.68;;;3.60;;
72864;SDS011;61000;48.120;11.548;2024-01-27T05:58:38;9.60;;;3.30;;
72864;SDS011;61000;48.120;11.548;2024-01-27T06:01:06;5.45;;;3.20;;
72864;SDS011;61000;48.120;11.548;2024-01-27T06:03:33;5.00;;;3.08;;
72864;SDS011;61000;48.120;11.548;2024-01-27T06:06:01;7.40;;;3.88;;
72864;SDS011;61000;48.120;11.548;2024-01-27T06:08:29;5.85;;;3.55;;
72864;SDS011;61000;48.120;11.548;2024-01-27T06:10:57;7.30;;;3.17;;
72864;SDS011;61000;48.120;11.548;2024-01-27T06:13:24;6.45;;;3.42;;
72864;SDS011;61000;48.120;11.548;2024-01-27T06:15:51;4.13;;;2.92;;
72864;SDS011;61000;48.120;11.548;2024-01-27T06:18:18;6.00;;;3.25;;
72864;SDS011;61000;48.120;11.548;2024-01-27T06:20:45;3.45;;;3.15;;
72864;SDS011;61000;48.120;11.548;2024-01-27T06:23:13;3.85;;;3.10;;
72864;SDS011;61000;48.120;11.548;2024-01-27T06:25:42;11.00;;;3.55;;
72864;SDS011;61000;48.120;11.548;2024-01-27T06:28:09;5.65;;;3.10;;
72864;SDS011;61000;48.120;11.548;2024-01-27T06:30:36;3.13;;;2.90;;
72864;SDS011;61000;48.120;11.548;2024-01-27T06:33:04;4.80;;;3.20;;
72864;SDS011;61000;48.120;11.548;2024-01-27T06:35:31;5.85;;;3.53;;
72864;SDS011;61000;48.120;11.548;2024-01-27T06:37:58;4.32;;;3.63;;
72864;SDS011;61000;48.120;11.548;2024-01-27T06:40:26;6.03;;;3.55;;
72864;SDS011;61000;48.120;11.548;2024-01-27T06:42:54;10.77;;;4.57;;
72864;SDS011;61000;48.120;11.548;2024-01-27T06:45:21;5.40;;;4.38;;
72864;SDS011;61000;48.120;11.548;2024-01-27T06:47:48;5.88;;;3.30;;
72864;SDS011;61000;48.120;11.548;2024-01-27T06:50:16;8.95;;;3.50;;
72864;SDS011;61000;48.120;11.548;2024-01-27T06:52:43;4.95;;;3.75;;
72864;SDS011;61000;48.120;11.548;2024-01-27T06:55:11;7.55;;;3.35;;
72864;SDS011;61000;48.120;11.548;2024-01-27T06:57:38;3.72;;;3.40;;
72864;SDS011;61000;48.120;11.548;2024-01-27T07:00:08;8.05;;;3.78;;
72864;SDS011;61000;48.120;11.548;2024-01-27T07:02:39;10.68;;;4.55;;
72864;SDS011;61000;48.120;11.548;2024-01-27T07:05:07;4.68;;;3.92;;
72864;SDS011;61000;48.120;11.548;2024-01-27T07:07:34;7.50;;;4.63;;
72864;SDS011;61000;48.120;11.548;2024-01-27T07:10:02;5.82;;;4.10;;
72864;SDS011;61000;48.120;11.548;2024-01-27T07:12:29;5.40;;;3.42;;
72864;SDS011;61000;48.120;11.548;2024-01-27T07:14:56;5.13;;;3.60;;
72864;SDS011;61000;48.120;11.548;2024-01-27T07:17:26;5.18;;;3.95;;
72864;SDS011;61000;48.120;11.548;2024-01-27T07:19:53;8.18;;;4.22;;
72864;SDS011;61000;48.120;11.548;2024-01-27T07:22:20;7.75;;;3.72;;
72864;SDS011;61000;48.120;11.548;2024-01-27T07:24:47;4.93;;;4.43;;
72864;SDS011;61000;48.120;11.548;2024-01-27T07:27:16;4.30;;;3.90;;
72864;SDS011;61000;48.120;11.548;2024-01-27T07:29:43;8.57;;;4.63;;
72864;SDS011;61000;48.120;11.548;2024-01-27T07:32:10;6.30;;;4.60;;
72864;SDS011;61000;48.120;11.548;2024-01-27T07:34:40;6.80;;;4.43;;
72864;SDS011;61000;48.120;11.548;2024-01-27T07:37:07;8.20;;;4.72;;
72864;SDS011;61000;48.120;11.548;2024-01-27T07:39:34;7.45;;;4.30;;
72864;SDS011;61000;48.120;11.548;2024-01-27T07:42:01;7.95;;;4.43;;
72864;SDS011;61000;48.120;11.548;2024-01-27T07:44:28;9.57;;;5.07;;
72864;SDS011;61000;48.120;11.548;2024-01-27T07:46:55;7.20;;;4.80;;
72864;SDS011;61000;48.120;11.548;2024-01-27T07:49:22;8.93;;;4.80;;
72864;SDS011;61000;48.120;11.548;2024-01-27T07:51:50;8.25;;;4.47;;
72864;SDS011;61000;48.120;11.548;2024-01-27T07:54:17;7.05;;;4.25;;
72864;SDS011;61000;48.120;11.548;2024-01-27T07:56:43;7.82;;;4.20;;
72864;SDS011;61000;48.120;11.548;2024-01-27T07:59:10;7.03;;;4.18;;
72864;SDS011;61000;48.120;11.548;2024-01-27T08:01:40;6.30;;;4.78;;
72864;SDS011;61000;48.120;11.548;2024-01-27T08:04:07;9.02;;;4.38;;
72864;SDS011;61000;48.120;11.548;2024-01-27T08:06:34;7.22;;;4.72;;
72864;SDS011;61000;48.120;11.548;2024-01-27T08:09:14;10.18;;;5.47;;
72864;SDS011;61000;48.120;11.548;2024-01-27T08:11:41;10.32;;;4.80;;
72864;SDS011;61000;48.120;11.548;2024-01-27T08:14:08;10.68;;;4.40;;
72864;SDS011;61000;48.120;11.548;2024-01-27T08:16:36;8.05;;;4.18;;
72864;SDS011;61000;48.120;11.548;2024-01-27T08:19:02;12.88;;;4.70;;
72864;SDS011;61000;48.120;11.548;2024-01-27T08:21:30;7.82;;;4.45;;
72864;SDS011;61000;48.120;11.548;2024-01-27T08:23:57;8.20;;;4.45;;
72864;SDS011;61000;48.120;11.548;2024-01-27T08:26:25;10.55;;;4.80;;
72864;SDS011;61000;48.120;11.548;2024-01-27T08:28:52;11.75;;;5.50;;
72864;SDS011;61000;48.120;11.548;2024-01-27T08:31:19;9.43;;;4.53;;
72864;SDS011;61000;48.120;11.548;2024-01-27T08:33:46;10.23;;;4.75;;
72864;SDS011;61000;48.120;11.548;2024-01-27T08:36:13;7.35;;;3.78;;
72864;SDS011;61000;48.120;11.548;2024-01-27T08:38:40;11.82;;;4.63;;
72864;SDS011;61000;48.120;11.548;2024-01-27T08:41:07;10.77;;;4.85;;
72864;SDS011;61000;48.120;11.548;2024-01-27T08:43:35;6.85;;;4.78;;
72864;SDS011;61000;48.120;11.548;2024-01-27T08:46:02;9.88;;;4.82;;
72864;SDS011;61000;48.120;11.548;2024-01-27T08:48:29;7.03;;;4.22;;
72864;SDS011;61000;48.120;11.548;2024-01-27T08:50:56;8.88;;;5.20;;
72864;SDS011;61000;48.120;11.548;2024-01-27T08:53:23;7.30;;;5.35;;
72864;SDS011;61000;48.120;11.548;2024-01-27T08:55:50;12.15;;;4.43;;
72864;SDS011;61000;48.120;11.548;2024-01-27T08:58:17;10.07;;;5.30;;
72864;SDS011;61000;48.120;11.548;2024-01-27T09:00:45;8.02;;;4.72;;
72864;SDS011;61000;48.120;11.548;2024-01-27T09:03:12;8.02;;;4.70;;
72864;SDS011;61000;48.120;11.548;2024-01-27T09:05:39;10.05;;;4.57;;
72864;SDS011;61000;48.120;11.548;2024-01-27T09:08:09;13.23;;;4.80;;
72864;SDS011;61000;48.120;11.548;2024-01-27T09:10:35;6.00;;;4.47;;
72864;SDS011;61000;48.120;11.548;2024-01-27T09:13:02;11.77;;;5.75;;
72864;SDS011;61000;48.120;11.548;2024-01-27T09:15:30;11.80;;;4.57;;
72864;SDS011;61000;48.120;11.548;2024-01-27T09:17:58;9.93;;;5.03;;
72864;SDS011;61000;48.120;11.548;2024-01-27T09:20:25;8.30;;;5.30;;
72864;SDS011;61000;48.120;11.548;2024-01-27T09:22:52;12.70;;;4.45;;
72864;SDS011;61000;48.120;11.548;2024-01-27T09:25:19;14.00;;;4.75;;
72864;SDS011;61000;48.120;11.548;2024-01-27T09:27:46;9.52;;;4.30;;
72864;SDS011;61000;48.120;11.548;2024-01-27T09:30:14;12.52;;;4.20;;
72864;SDS011;61000;48.120;11.548;2024-01-27T09:32:41;6.55;;;3.75;;
72864;SDS011;61000;48.120;11.548;2024-01-27T09:35:09;11.82;;;5.15;;
72864;SDS011;61000;48.120;11.548;2024-01-27T09:37:37;7.32;;;4.60;;
72864;SDS011;61000;48.120;11.548;2024-01-27T09:40:04;8.73;;;4.65;;
72864;SDS011;61000;48.120;11.548;2024-01-27T09:42:32;8.75;;;5.55;;
72864;SDS011;61000;48.120;11.548;2024-01-27T09:45:00;7.80;;;4.13;;
72864;SDS011;61000;48.120;11.548;2024-01-27T09:47:28;8.07;;;4.00;;
72864;SDS011;61000;48.120;11.548;2024-01-27T09:49:56;10.70;;;3.92;;
72864;SDS011;61000;48.120;11.548;2024-01-27T09:52:25;9.75;;;4.10;;
72864;SDS011;61000;48.120;11.548;2024-01-27T09:54:52;9.52;;;3.78;;
72864;SDS011;61000;48.120;11.548;2024-01-27T09:57:19;6.03;;;3.85;;
72864;SDS011;61000;48.120;11.548;2024-01-27T09:59:47;8.40;;;4.25;;
72864;SDS011;61000;48.120;11.548;2024-01-27T10:02:14;7.70;;;3.90;;
72864;SDS011;61000;48.120;11.548;2024-01-27T10:04:42;4.97;;;4.47;;
72864;SDS011;61000;48.120;11.548;2024-01-27T10:07:12;11.25;;;4.05;;
72864;SDS011;61000;48.120;11.548;2024-01-27T10:09:41;10.05;;;4.22;;
72864;SDS011;61000;48.120;11.548;2024-01-27T10:12:08;7.47;;;3.80;;
72864;SDS011;61000;48.120;11.548;2024-01-27T10:14:40;8.23;;;4.50;;
72864;SDS011;61000;48.120;11.548;2024-01-27T10:17:09;8.48;;;4.05;;
72864;SDS011;61000;48.120;11.548;2024-01-27T10:19:36;8.52;;;5.03;;
72864;SDS011;61000;48.120;11.548;2024-01-27T10:22:03;6.53;;;4.55;;
72864;SDS011;61000;48.120;11.548;2024-01-27T10:24:31;5.70;;;4.43;;
72864;SDS011;61000;48.120;11.548;2024-01-27T10:27:01;9.95;;;4.90;;
72864;SDS011;61000;48.120;11.548;2024-01-27T10:29:28;5.97;;;4.97;;
72864;SDS011;61000;48.120;11.548;2024-01-27T10:31:55;6.07;;;4.07;;
72864;SDS011;61000;48.120;11.548;2024-01-27T10:34:22;9.18;;;3.83;;
72864;SDS011;61000;48.120;11.548;2024-01-27T10:36:50;10.98;;;4.53;;
72864;SDS011;61000;48.120;11.548;2024-01-27T10:39:17;11.52;;;5.63;;
72864;SDS011;61000;48.120;11.548;2024-01-27T10:41:45;6.90;;;4.80;;
72864;SDS011;61000;48.120;11.548;2024-01-27T10:44:15;6.53;;;4.10;;
72864;SDS011;61000;48.120;11.548;2024-01-27T10:46:43;11.07;;;4.47;;
72864;SDS011;61000;48.120;11.548;2024-01-27T10:49:12;6.47;;;3.90;;
72864;SDS011;61000;48.120;11.548;2024-01-27T10:51:41;7.28;;;4.22;;
72864;SDS011;61000;48.120;11.548;2024-01-27T10:54:10;8.20;;;4.50;;
72864;SDS011;61000;48.120;11.548;2024-01-27T10:56:40;12.00;;;4.78;;
72864;SDS011;61000;48.120;11.548;2024-01-27T10:59:09;6.97;;;4.20;;
72864;SDS011;61000;48.120;11.548;2024-01-27T11:01:40;11.50;;;4.32;;
72864;SDS011;61000;48.120;11.548;2024-01-27T11:04:09;6.63;;;3.85;;
72864;SDS011;61000;48.120;11.548;2024-01-27T11:06:38;9.93;;;3.88;;
72864;SDS011;61000;48.120;11.548;2024-01-27T11:09:08;6.10;;;4.55;;
72864;SDS011;61000;48.120;11.548;2024-01-27T11:11:36;4.55;;;3.58;;
72864;SDS011;61000;48.120;11.548;2024-01-27T11:14:04;6.70;;;3.47;;
72864;SDS011;61000;48.120;11.548;2024-01-27T11:16:31;6.63;;;3.70;;
72864;SDS011;61000;48.120;11.548;2024-01-27T11:19:00;6.00;;;3.90;;
72864;SDS011;61000;48.120;11.548;2024-01-27T11:21:27;4.97;;;3.58;;
72864;SDS011;61000;48.120;11.548;2024-01-27T11:23:54;4.38;;;3.40;;
72864;SDS011;61000;48.120;11.548;2024-01-27T11:26:22;6.05;;;3.55;;
72864;SDS011;61000;48.120;11.548;2024-01-27T11:28:51;8.93;;;4.03;;
72864;SDS011;61000;48.120;11.548;2024-01-27T11:31:18;4.57;;;3.38;;
72864;SDS011;61000;48.120;11.548;2024-01-27T11:33:47;9.98;;;4.35;;
72864;SDS011;61000;48.120;11.548;2024-01-27T11:36:21;7.53;;;3.55;;
72864;SDS011;61000;48.120;11.548;2024-01-27T11:38:49;6.15;;;3.50;;
72864;SDS011;61000;48.120;11.548;2024-01-27T11:41:25;7.15;;;3.78;;
72864;SDS011;61000;48.120;11.548;2024-01-27T11:43:52;10.55;;;4.60;;
72864;SDS011;61000;48.120;11.548;2024-01-27T11:46:19;5.50;;;3.50;;
72864;SDS011;61000;48.120;11.548;2024-01-27T11:48:46;7.97;;;4.25;;
72864;SDS011;61000;48.120;11.548;2024-01-27T11:51:14;7.68;;;3.67;;
72864;SDS011;61000;48.120;11.548;2024-01-27T11:53:42;9.05;;;4.20;;
72864;SDS011;61000;48.120;11.548;2024-01-27T11:56:10;6.18;;;3.42;;
72864;SDS011;61000;48.120;11.548;2024-01-27T11:58:37;5.07;;;3.20;;
72864;SDS011;61000;48.120;11.548;2024-01-27T12:01:03;8.65;;;3.67;;
72864;SDS011;61000;48.120;11.548;2024-01-27T12:03:30;4.28;;;2.85;;
72864;SDS011;61000;48.120;11.548;2024-01-27T12:05:58;6.68;;;3.70;;
72864;SDS011;61000;48.120;11.548;2024-01-27T12:08:25;14.55;;;3.92;;
72864;SDS011;61000;48.120;11.548;2024-01-27T12:10:54;9.02;;;3.50;;
72864;SDS011;61000;48.120;11.548;2024-01-27T12:13:21;9.40;;;3.95;;
72864;SDS011;61000;48.120;11.548;2024-01-27T12:15:48;6.65;;;3.38;;
72864;SDS011;61000;48.120;11.548;2024-01-27T12:18:15;5.10;;;3.17;;
72864;SDS011;61000;48.120;11.548;2024-01-27T12:20:44;10.88;;;3.42;;
72864;SDS011;61000;48.120;11.548;2024-01-27T12:23:11;4.25;;;2.88;;
72864;SDS011;61000;48.120;11.548;2024-01-27T12:25:38;4.00;;;3.03;;
72864;SDS011;61000;48.120;11.548;2024-01-27T12:28:07;3.42;;;2.70;;
72864;SDS011;61000;48.120;11.548;2024-01-27T12:30:35;5.45;;;3.30;;
72864;SDS011;61000;48.120;11.548;2024-01-27T12:33:07;5.88;;;3.08;;
72864;SDS011;61000;48.120;11.548;2024-01-27T12:35:35;10.85;;;3.33;;
72864;SDS011;61000;48.120;11.548;2024-01-27T12:38:03;3.70;;;2.53;;
72864;SDS011;61000;48.120;11.548;2024-01-27T12:40:31;3.45;;;2.90;;
72864;SDS011;61000;48.120;11.548;2024-01-27T12:42:58;4.05;;;3.20;;
72864;SDS011;61000;48.120;11.548;2024-01-27T12:45:26;6.68;;;3.13;;
72864;SDS011;61000;48.120;11.548;2024-01-27T12:47:54;7.18;;;3.25;;
72864;SDS011;61000;48.120;11.548;2024-01-27T12:50:21;5.28;;;3.05;;
72864;SDS011;61000;48.120;11.548;2024-01-27T12:52:49;4.50;;;2.20;;
72864;SDS011;61000;48.120;11.548;2024-01-27T12:55:16;5.90;;;2.53;;
72864;SDS011;61000;48.120;11.548;2024-01-27T12:57:46;3.85;;;2.60;;
72864;SDS011;61000;48.120;11.548;2024-01-27T13:00:14;4.00;;;2.58;;
72864;SDS011;61000;48.120;11.548;2024-01-27T13:02:43;6.20;;;3.22;;
72864;SDS011;61000;48.120;11.548;2024-01-27T13:05:10;8.57;;;2.60;;
72864;SDS011;61000;48.120;11.548;2024-01-27T13:07:38;4.43;;;2.42;;
72864;SDS011;61000;48.120;11.548;2024-01-27T13:10:05;5.13;;;2.45;;
72864;SDS011;61000;48.120;11.548;2024-01-27T13:12:33;6.05;;;2.47;;
72864;SDS011;61000;48.120;11.548;2024-01-27T13:15:00;7.30;;;2.47;;
72864;SDS011;61000;48.120;11.548;2024-01-27T13:17:27;2.63;;;2.08;;
72864;SDS011;61000;48.120;11.548;2024-01-27T13:19:56;2.90;;;2.40;;
72864;SDS011;61000;48.120;11.548;2024-01-27T13:22:23;4.40;;;2.00;;
72864;SDS011;61000;48.120;11.548;2024-01-27T13:24:50;8.63;;;2.88;;
72864;SDS011;61000;48.120;11.548;2024-01-27T13:27:17;5.57;;;3.05;;
72864;SDS011;61000;48.120;11.548;2024-01-27T13:29:45;4.55;;;2.65;;
72864;SDS011;61000;48.120;11.548;2024-01-27T13:32:12;4.40;;;2.40;;
72864;SDS011;61000;48.120;11.548;2024-01-27T13:34:39;4.03;;;2.08;;
72864;SDS011;61000;48.120;11.548;2024-01-27T13:37:07;8.98;;;2.90;;
72864;SDS011;61000;48.120;11.548;2024-01-27T13:39:35;5.25;;;2.20;;
72864;SDS011;61000;48.120;11.548;2024-01-27T13:42:02;9.60;;;3.20;;
72864;SDS011;61000;48.120;11.548;2024-01-27T13:44:30;5.32;;;3.20;;
72864;SDS011;61000;48.120;11.548;2024-01-27T13:47:00;4.93;;;2.58;;
72864;SDS011;61000;48.120;11.548;2024-01-27T13:49:27;2.75;;;2.50;;
72864;SDS011;61000;48.120;11.548;2024-01-27T13:51:54;5.10;;;2.65;;
72864;SDS011;61000;48.120;11.548;2024-01-27T13:54:23;3.53;;;2.30;;
72864;SDS011;61000;48.120;11.548;2024-01-27T13:56:50;5.30;;;2.50;;
72864;SDS011;61000;48.120;11.548;2024-01-27T13:59:17;7.80;;;2.40;;
72864;SDS011;61000;48.120;11.548;2024-01-27T14:01:44;6.82;;;2.42;;
72864;SDS011;61000;48.120;11.548;2024-01-27T14:04:11;8.85;;;2.40;;
72864;SDS011;61000;48.120;11.548;2024-01-27T14:06:39;5.50;;;2.60;;
72864;SDS011;61000;48.120;11.548;2024-01-27T14:09:06;6.85;;;2.63;;
72864;SDS011;61000;48.120;11.548;2024-01-27T14:11:35;8.93;;;2.67;;
72864;SDS011;61000;48.120;11.548;2024-01-27T14:14:02;3.30;;;2.45;;
72864;SDS011;61000;48.120;11.548;2024-01-27T14:16:29;6.07;;;2.88;;
72864;SDS011;61000;48.120;11.548;2024-01-27T14:18:57;5.15;;;2.28;;
72864;SDS011;61000;48.120;11.548;2024-01-27T14:21:23;5.97;;;2.40;;
72864;SDS011;61000;48.120;11.548;2024-01-27T14:23:52;4.35;;;2.97;;
72864;SDS011;61000;48.120;11.548;2024-01-27T14:26:25;4.78;;;2.38;;
72864;SDS011;61000;48.120;11.548;2024-01-27T14:28:54;4.45;;;2.97;;
72864;SDS011;61000;48.120;11.548;2024-01-27T14:31:21;7.90;;;3.17;;
72864;SDS011;61000;48.120;11.548;2024-01-27T14:33:48;8.40;;;3.38;;
72864;SDS011;61000;48.120;11.548;2024-01-27T14:36:15;5.15;;;3.20;;